createdAt,value
2019-05-05T00:01:52.896Z,101081.72
2019-05-05T00:04:54.460Z,101085.91
2019-05-05T00:07:31.565Z,101081.63
2019-05-05T00:10:00.021Z,101089.27
2019-05-05T00:12:59.990Z,101089.84
2019-05-05T00:16:04.540Z,101091.14
2019-05-05T00:18:34.632Z,101094.77
2019-05-05T00:21:04.629Z,101098.14
2019-05-05T00:23:34.576Z,101090.91
2019-05-05T00:26:04.421Z,101095.50
2019-05-05T00:28:32.904Z,101097.16
2019-05-05T00:31:01.390Z,101104.28
2019-05-05T00:33:29.875Z,101101.84
2019-05-05T00:35:58.591Z,101105.05
2019-05-05T00:38:27.042Z,101102.13
2019-05-05T00:40:55.647Z,101107.22
2019-05-05T00:43:25.288Z,101104.64
2019-05-05T00:45:56.365Z,101104.23
2019-05-05T00:48:35.048Z,101105.66
2019-05-05T00:51:04.640Z,101106.75
2019-05-05T00:53:34.298Z,101109.17
2019-05-05T00:56:04.955Z,101109.53
2019-05-05T00:58:35.331Z,101108.99
2019-05-05T01:01:28.763Z,101113.30
2019-05-05T01:03:57.502Z,101115.70
2019-05-05T01:06:28.340Z,101115.27
2019-05-05T01:08:56.882Z,101117.73
2019-05-05T01:11:25.744Z,101113.99
2019-05-05T01:13:54.792Z,101125.41
2019-05-05T01:16:24.753Z,101120.91
2019-05-05T01:18:55.397Z,101126.73
2019-05-05T01:21:24.501Z,101127.92
2019-05-05T01:23:54.844Z,101124.64
2019-05-05T01:26:24.833Z,101127.28
2019-05-05T01:28:53.426Z,101138.24
2019-05-05T01:31:22.474Z,101138.78
2019-05-05T01:34:04.905Z,101135.20
2019-05-05T01:36:34.525Z,101135.41
2019-05-05T01:39:34.635Z,101136.47
2019-05-05T01:42:09.146Z,101139.36
2019-05-05T01:44:37.603Z,101143.22
2019-05-05T01:47:06.099Z,101147.61
2019-05-05T01:49:34.831Z,101146.06
2019-05-05T01:52:04.378Z,101144.02
2019-05-05T01:54:35.159Z,101147.42
2019-05-05T01:57:05.453Z,101148.72
2019-05-05T01:59:35.323Z,101151.75
2019-05-05T02:02:04.431Z,101157.20
2019-05-05T02:04:34.289Z,101156.17
2019-05-05T02:07:05.290Z,101153.92
2019-05-05T02:09:35.360Z,101159.23
2019-05-05T02:12:05.131Z,101156.91
2019-05-05T02:14:35.221Z,101156.92
2019-05-05T02:17:05.061Z,101159.27
2019-05-05T02:19:35.048Z,101159.59
2019-05-05T02:22:05.342Z,101160.30
2019-05-05T02:24:35.288Z,101151.06
2019-05-05T02:27:05.156Z,101157.98
2019-05-05T02:29:55.766Z,101157.78
2019-05-05T02:32:45.175Z,101161.38
2019-05-05T02:35:16.446Z,101155.95
2019-05-05T02:37:46.015Z,101152.91
2019-05-05T02:40:15.993Z,101159.98
2019-05-05T02:42:45.576Z,101161.74
2019-05-05T02:45:35.270Z,101159.98
2019-05-05T02:48:11.250Z,101156.39
2019-05-05T02:51:02.269Z,101156.66
2019-05-05T02:53:34.142Z,101159.13
2019-05-05T02:56:04.296Z,101164.16
2019-05-05T02:58:33.967Z,101162.11
2019-05-05T03:01:09.612Z,101169.63
2019-05-05T03:03:38.086Z,101172.09
2019-05-05T03:06:06.561Z,101169.36
2019-05-05T03:08:35.056Z,101174.78
2019-05-05T03:11:03.953Z,101173.44
2019-05-05T03:13:33.685Z,101169.00
2019-05-05T03:16:16.891Z,101173.02
2019-05-05T03:18:45.344Z,101168.45
2019-05-05T03:21:14.081Z,101105.61
2019-05-05T03:23:44.049Z,101177.55
2019-05-05T03:26:14.050Z,101178.03
2019-05-05T03:28:46.321Z,101182.70
2019-05-05T03:31:15.985Z,101182.63
2019-05-05T03:33:45.886Z,101189.87
2019-05-05T03:36:14.775Z,101192.05
2019-05-05T03:38:44.370Z,101197.73
2019-05-05T03:41:20.302Z,101194.72
2019-05-05T03:44:04.833Z,101198.30
2019-05-05T03:46:34.436Z,101209.66
2019-05-05T03:49:04.820Z,101209.28
2019-05-05T03:51:34.510Z,101209.66
2019-05-05T03:54:04.347Z,101207.33
2019-05-05T03:56:34.700Z,101213.77
2019-05-05T03:59:04.919Z,101205.29
2019-05-05T04:02:03.802Z,101213.70
2019-05-05T04:04:35.312Z,101216.22
2019-05-05T04:07:04.762Z,101219.27
2019-05-05T04:09:34.517Z,101218.42
2019-05-05T04:12:04.440Z,101225.60
2019-05-05T04:14:34.752Z,101230.74
2019-05-05T04:17:24.390Z,101226.61
2019-05-05T04:19:54.250Z,101229.06
2019-05-05T04:22:23.787Z,101179.41
2019-05-05T04:24:54.154Z,101230.03
2019-05-05T04:27:23.886Z,101243.43
2019-05-05T04:29:54.298Z,101241.56
2019-05-05T04:32:24.437Z,101236.27
2019-05-05T04:34:54.295Z,101245.77
2019-05-05T04:37:23.915Z,101244.42
2019-05-05T04:39:53.717Z,101249.67
2019-05-05T04:42:24.488Z,101246.94
2019-05-05T04:44:53.850Z,101258.00
2019-05-05T04:47:27.360Z,101251.36
2019-05-05T04:50:04.319Z,101251.25
2019-05-05T04:52:34.349Z,101256.02
2019-05-05T04:55:03.896Z,101245.52
2019-05-05T04:57:32.721Z,101252.88
2019-05-05T05:00:01.172Z,101255.72
2019-05-05T05:02:53.890Z,101250.77
2019-05-05T05:05:26.685Z,101263.96
2019-05-05T05:07:58.035Z,101266.44
2019-05-05T05:10:25.756Z,101259.89
2019-05-05T05:12:54.230Z,101268.80
2019-05-05T05:15:23.880Z,101266.53
2019-05-05T05:18:08.505Z,101264.40
2019-05-05T05:20:37.195Z,101271.26
2019-05-05T05:23:05.706Z,101270.25
2019-05-05T05:25:34.796Z,101275.13
2019-05-05T05:28:04.171Z,101278.60
2019-05-05T05:30:34.689Z,101280.76
2019-05-05T05:33:04.380Z,101290.08
2019-05-05T05:35:33.665Z,101291.05
2019-05-05T05:38:04.447Z,101292.05
2019-05-05T05:40:39.023Z,101296.48
2019-05-05T05:43:10.008Z,101304.16
2019-05-05T05:46:00.118Z,101303.08
2019-05-05T05:48:34.181Z,101298.40
2019-05-05T05:51:06.212Z,101310.12
2019-05-05T05:53:35.000Z,101310.23
2019-05-05T05:56:04.331Z,101308.52
2019-05-05T05:58:33.788Z,101315.13
2019-05-05T06:01:04.342Z,101320.47
2019-05-05T06:03:33.964Z,101314.56
2019-05-05T06:06:04.523Z,101316.55
2019-05-05T06:08:34.582Z,101319.27
2019-05-05T06:11:04.418Z,101326.44
2019-05-05T06:13:33.685Z,101323.31
2019-05-05T06:16:04.147Z,101331.34
2019-05-05T06:18:34.359Z,101328.70
2019-05-05T06:21:04.474Z,101331.55
2019-05-05T06:23:34.426Z,101327.45
2019-05-05T06:26:06.899Z,101327.34
2019-05-05T06:28:34.196Z,101323.16
2019-05-05T06:31:04.729Z,101325.90
2019-05-05T06:33:34.753Z,101329.96
2019-05-05T06:36:03.783Z,101337.41
2019-05-05T06:38:34.364Z,101339.84
2019-05-05T06:41:24.945Z,101345.27
2019-05-05T06:44:11.408Z,101340.03
2019-05-05T06:47:04.681Z,101343.81
2019-05-05T06:49:34.492Z,101343.59
2019-05-05T06:52:04.089Z,101341.56
2019-05-05T06:54:34.628Z,101354.02
2019-05-05T06:57:04.465Z,101362.65
2019-05-05T06:59:34.940Z,101358.33
2019-05-05T07:02:04.230Z,101359.31
2019-05-05T07:04:33.987Z,101358.14
2019-05-05T07:07:02.602Z,101361.00
2019-05-05T07:09:33.469Z,101367.87
2019-05-05T07:12:01.599Z,101364.02
2019-05-05T07:14:30.046Z,101361.19
2019-05-05T07:16:58.606Z,101360.38
2019-05-05T07:19:27.082Z,101364.12
2019-05-05T07:21:55.775Z,101363.15
2019-05-05T07:24:24.248Z,101365.54
2019-05-05T07:26:54.159Z,101367.89
2019-05-05T07:29:23.909Z,101374.02
2019-05-05T07:31:54.522Z,101377.28
2019-05-05T07:34:24.186Z,101388.44
2019-05-05T07:36:54.838Z,101377.48
2019-05-05T07:39:23.829Z,101374.62
2019-05-05T07:41:54.197Z,101379.70
2019-05-05T07:44:29.034Z,101373.70
2019-05-05T07:46:54.366Z,101368.14
2019-05-05T07:49:24.376Z,101367.64
2019-05-05T07:51:54.716Z,101371.69
2019-05-05T07:54:23.716Z,101375.07
2019-05-05T07:56:53.823Z,101380.48
2019-05-05T07:59:23.862Z,101378.01
2019-05-05T08:01:54.558Z,101379.73
2019-05-05T08:04:24.246Z,101372.33
2019-05-05T08:06:53.838Z,101381.45
2019-05-05T08:09:24.690Z,101385.39
2019-05-05T08:11:54.167Z,101385.20
2019-05-05T08:14:24.555Z,101382.41
2019-05-05T08:17:14.486Z,101388.34
2019-05-05T08:19:46.032Z,101377.56
2019-05-05T08:22:14.681Z,101380.98
2019-05-05T08:25:05.371Z,101393.02
2019-05-05T08:27:53.755Z,101380.19
2019-05-05T08:30:33.507Z,101377.69
2019-05-05T08:33:01.699Z,101369.44
2019-05-05T08:35:30.162Z,101377.36
2019-05-05T08:37:59.183Z,101379.04
2019-05-05T08:40:27.645Z,101389.32
2019-05-05T08:42:56.123Z,101386.09
2019-05-05T08:45:26.750Z,101393.20
2019-05-05T08:47:54.838Z,101387.12
2019-05-05T08:50:26.755Z,101379.19
2019-05-05T08:52:53.784Z,101376.33
2019-05-05T08:55:24.450Z,101400.85
2019-05-05T08:57:54.017Z,101385.83
2019-05-05T09:00:24.420Z,101385.13
2019-05-05T09:02:54.349Z,101386.48
2019-05-05T09:05:23.824Z,101382.77
2019-05-05T09:07:54.612Z,101387.49
2019-05-05T09:10:23.749Z,101380.39
2019-05-05T09:12:54.138Z,101384.45
2019-05-05T09:15:24.307Z,101385.44
2019-05-05T09:17:54.523Z,101383.42
2019-05-05T09:20:24.201Z,101391.84
2019-05-05T09:22:53.548Z,101378.16
2019-05-05T09:25:38.789Z,101371.59
2019-05-05T09:28:25.529Z,101375.14
2019-05-05T09:30:54.012Z,101375.98
2019-05-05T09:33:24.639Z,101369.92
2019-05-05T09:35:54.187Z,101368.75
2019-05-05T09:38:23.912Z,101380.75
2019-05-05T09:40:54.286Z,101378.70
2019-05-05T09:43:24.055Z,101373.28
2019-05-05T09:45:54.492Z,101367.90
2019-05-05T09:48:24.269Z,101365.17
2019-05-05T09:50:54.082Z,101369.22
2019-05-05T09:53:23.798Z,101371.22
2019-05-05T09:55:54.748Z,101371.07
2019-05-05T09:58:24.186Z,101367.17
2019-05-05T10:00:54.591Z,101369.52
2019-05-05T10:03:23.162Z,101373.08
2019-05-05T10:05:53.658Z,101381.45
2019-05-05T10:08:23.665Z,101377.23
2019-05-05T10:10:52.233Z,101384.88
2019-05-05T10:13:21.281Z,101401.83
2019-05-05T10:15:50.042Z,101402.70
2019-05-05T10:18:18.510Z,101394.25
2019-05-05T10:20:46.979Z,101401.34
2019-05-05T10:23:15.438Z,101410.13
2019-05-05T10:25:47.194Z,101408.10
2019-05-05T10:28:15.820Z,101397.66
2019-05-05T10:30:44.578Z,101415.56
2019-05-05T10:33:14.274Z,101397.80
2019-05-05T10:35:43.769Z,101400.33
2019-05-05T10:38:14.201Z,101398.64
2019-05-05T10:40:44.700Z,101394.90
2019-05-05T10:43:14.827Z,101395.55
2019-05-05T10:45:44.057Z,101393.69
2019-05-05T10:48:14.361Z,101392.95
2019-05-05T10:50:44.470Z,101394.11
2019-05-05T10:53:13.662Z,101392.55
2019-05-05T10:55:42.218Z,101396.08
2019-05-05T10:58:10.700Z,101390.48
2019-05-05T11:00:56.328Z,101393.19
2019-05-05T11:03:24.965Z,101398.79
2019-05-05T11:05:53.905Z,101396.05
2019-05-05T11:08:24.015Z,101392.78
2019-05-05T11:10:52.672Z,101402.92
2019-05-05T11:13:21.144Z,101392.15
2019-05-05T11:15:49.672Z,101398.04
2019-05-05T11:18:18.372Z,101400.43
2019-05-05T11:20:46.965Z,101404.70
2019-05-05T11:23:15.499Z,101401.87
2019-05-05T11:25:44.400Z,101395.09
2019-05-05T11:28:12.959Z,101402.52
2019-05-05T11:30:42.524Z,101398.15
2019-05-05T11:33:28.565Z,101413.52
2019-05-05T11:36:04.536Z,101400.85
2019-05-05T11:38:33.947Z,101400.19
2019-05-05T11:41:04.765Z,101391.70
2019-05-05T11:43:33.827Z,101396.08
2019-05-05T11:46:02.627Z,101399.77
2019-05-05T11:48:31.058Z,101395.67
2019-05-05T11:50:59.697Z,101399.08
2019-05-05T11:53:28.178Z,101398.89
2019-05-05T11:55:56.650Z,101399.02
2019-05-05T11:58:25.139Z,101397.60
2019-05-05T12:00:54.511Z,101391.30
2019-05-05T12:03:23.227Z,101394.55
2019-05-05T12:05:51.681Z,101396.94
2019-05-05T12:08:20.261Z,101388.06
2019-05-05T12:10:55.583Z,101394.14
2019-05-05T12:13:24.026Z,101394.23
2019-05-05T12:16:13.585Z,101392.23
2019-05-05T12:18:44.210Z,101388.21
2019-05-05T12:21:13.986Z,101392.47
2019-05-05T12:23:44.423Z,101395.50
2019-05-05T12:26:31.761Z,101401.43
2019-05-05T12:29:25.709Z,101393.23
2019-05-05T12:31:54.227Z,101399.45
2019-05-05T12:34:23.631Z,101389.85
2019-05-05T12:36:53.905Z,101391.51
2019-05-05T12:39:22.577Z,101384.94
2019-05-05T12:41:51.097Z,101393.49
2019-05-05T12:44:25.206Z,101402.84
2019-05-05T12:47:23.625Z,101397.97
2019-05-05T12:49:52.135Z,101403.02
2019-05-05T12:52:22.453Z,101399.94
2019-05-05T12:54:50.911Z,101396.88
2019-05-05T12:57:19.477Z,101402.83
2019-05-05T12:59:47.948Z,101399.35
2019-05-05T13:02:16.643Z,101421.58
2019-05-05T13:04:45.130Z,101401.73
2019-05-05T13:07:14.701Z,101406.73
2019-05-05T13:09:44.095Z,101412.42
2019-05-05T13:12:14.821Z,101410.61
2019-05-05T13:14:43.898Z,101397.94
2019-05-05T13:17:14.163Z,101406.05
2019-05-05T13:19:52.880Z,101406.05
2019-05-05T13:22:39.199Z,101409.10
2019-05-05T13:25:27.198Z,101409.47
2019-05-05T13:27:57.417Z,101412.47
2019-05-05T13:30:26.183Z,101403.97
2019-05-05T13:32:54.797Z,101395.49
2019-05-05T13:35:23.524Z,101399.76
2019-05-05T13:37:52.234Z,101402.16
2019-05-05T13:40:20.702Z,101408.03
2019-05-05T13:42:49.187Z,101407.24
2019-05-05T13:45:39.606Z,101402.25
2019-05-05T13:48:08.297Z,101411.09
2019-05-05T13:50:39.814Z,101413.31
2019-05-05T13:53:08.274Z,101415.69
2019-05-05T13:55:36.867Z,101407.81
2019-05-05T13:58:08.554Z,101395.94
2019-05-05T14:00:36.209Z,101405.91
2019-05-05T14:03:04.788Z,101407.59
2019-05-05T14:05:34.357Z,101407.59
2019-05-05T14:08:04.165Z,101414.16
2019-05-05T14:10:32.777Z,101411.46
2019-05-05T14:13:03.677Z,101425.77
2019-05-05T14:15:33.983Z,101414.80
2019-05-05T14:18:03.783Z,101412.24
2019-05-05T14:20:34.503Z,101416.55
2019-05-05T14:23:03.854Z,101420.81
2019-05-05T14:25:32.709Z,101420.05
2019-05-05T14:28:03.717Z,101415.88
2019-05-05T14:30:57.177Z,101419.11
2019-05-05T14:33:31.441Z,101419.85
2019-05-05T14:36:18.920Z,101413.88
2019-05-05T14:38:53.928Z,101416.47
2019-05-05T14:41:22.845Z,101412.80
2019-05-05T14:43:53.815Z,101416.50
2019-05-05T14:46:23.385Z,101418.20
2019-05-05T14:48:53.541Z,101419.74
2019-05-05T14:51:21.994Z,101421.38
2019-05-05T14:53:50.476Z,101404.91
2019-05-05T14:56:19.196Z,101411.88
2019-05-05T14:58:47.654Z,101405.89
2019-05-05T15:01:16.123Z,101404.19
2019-05-05T15:03:44.643Z,101421.73
2019-05-05T15:06:18.745Z,101410.69
2019-05-05T15:09:09.045Z,101409.19
2019-05-05T15:11:50.462Z,101420.77
2019-05-05T15:14:18.939Z,101418.97
2019-05-05T15:16:47.501Z,101422.11
2019-05-05T15:19:16.042Z,101418.06
2019-05-05T15:21:44.535Z,101431.20
2019-05-05T15:24:13.831Z,101419.45
2019-05-05T15:26:49.785Z,101420.37
2019-05-05T15:29:12.691Z,101431.86
2019-05-05T15:31:41.175Z,101428.33
2019-05-05T15:34:09.743Z,101433.55
2019-05-05T15:36:38.210Z,101441.78
2019-05-05T15:39:08.043Z,101435.92
2019-05-05T15:41:36.863Z,101450.45
2019-05-05T15:44:05.624Z,101452.88
2019-05-05T15:46:34.104Z,101455.89
2019-05-05T15:49:04.212Z,101450.85
2019-05-05T15:51:34.365Z,101445.84
2019-05-05T15:54:03.917Z,101450.81
2019-05-05T15:56:34.032Z,101447.78
2019-05-05T15:59:02.739Z,101448.32
2019-05-05T16:01:31.232Z,101448.77
2019-05-05T16:03:59.697Z,101443.13
2019-05-05T16:06:28.175Z,101442.30
2019-05-05T16:08:56.936Z,101441.84
2019-05-05T16:11:26.949Z,101443.45
2019-05-05T16:13:55.468Z,101450.28
2019-05-05T16:16:55.592Z,101452.67
2019-05-05T16:19:50.446Z,101445.59
2019-05-05T16:22:26.047Z,101441.02
2019-05-05T16:25:14.290Z,101444.08
2019-05-05T16:27:44.573Z,101448.30
2019-05-05T16:30:14.484Z,101449.59
2019-05-05T16:32:43.000Z,101448.63
2019-05-05T16:35:11.535Z,101450.70
2019-05-05T16:37:40.326Z,101445.44
2019-05-05T16:40:09.984Z,101441.75
2019-05-05T16:42:38.580Z,101443.11
2019-05-05T16:45:07.130Z,101439.25
2019-05-05T16:47:35.610Z,101436.66
2019-05-05T16:50:04.438Z,101440.98
2019-05-05T16:52:37.841Z,101440.09
2019-05-05T16:55:14.818Z,101441.69
2019-05-05T16:57:43.802Z,101432.70
2019-05-05T17:00:12.381Z,101443.27
2019-05-05T17:02:40.864Z,101433.72
2019-05-05T17:05:09.342Z,101439.05
2019-05-05T17:07:37.841Z,101442.33
2019-05-05T17:10:06.396Z,101434.57
2019-05-05T17:12:34.876Z,101448.73
2019-05-05T17:15:24.429Z,101442.77
2019-05-05T17:17:58.548Z,101450.00
2019-05-05T17:20:28.424Z,101446.84
2019-05-05T17:22:59.563Z,101441.31
2019-05-05T17:25:28.010Z,101444.73
2019-05-05T17:27:56.449Z,101439.50
2019-05-05T17:30:27.066Z,101450.39
2019-05-05T17:32:55.140Z,101446.71
2019-05-05T17:35:24.058Z,101439.63
2019-05-05T17:37:53.872Z,101447.03
2019-05-05T17:40:50.801Z,101451.39
2019-05-05T17:43:34.069Z,101457.59
2019-05-05T17:46:08.906Z,101460.34
2019-05-05T17:48:44.194Z,101468.73
2019-05-05T17:51:23.589Z,101466.91
2019-05-05T17:54:00.347Z,101486.38
2019-05-05T17:56:28.828Z,101484.17
2019-05-05T17:58:57.311Z,101484.00
2019-05-05T18:01:26.007Z,101481.47
2019-05-05T18:03:54.721Z,101488.54
2019-05-05T18:06:45.086Z,101492.28
2019-05-05T18:09:19.902Z,101494.45
2019-05-05T18:12:04.382Z,101490.55
2019-05-05T18:14:33.570Z,101492.05
2019-05-05T18:17:04.121Z,101486.97
2019-05-05T18:19:34.030Z,101491.88
2019-05-05T18:22:02.615Z,101491.52
2019-05-05T18:24:31.311Z,101481.70
2019-05-05T18:26:59.744Z,101486.11
2019-05-05T18:29:28.192Z,101483.77
2019-05-05T18:31:56.893Z,101484.73
2019-05-05T18:34:25.349Z,101485.76
2019-05-05T18:36:54.419Z,101491.02
2019-05-05T18:39:24.681Z,101482.56
2019-05-05T18:42:14.616Z,101479.18
2019-05-05T18:44:45.329Z,101490.16
2019-05-05T18:47:18.182Z,101486.93
2019-05-05T18:49:46.044Z,101493.86
2019-05-05T18:52:14.530Z,101491.29
2019-05-05T18:54:43.608Z,101491.06
2019-05-05T18:57:12.619Z,101498.17
2019-05-05T18:59:41.411Z,101488.72
2019-05-05T19:02:19.318Z,101496.64
2019-05-05T19:05:09.923Z,101497.14
2019-05-05T19:07:54.478Z,101501.67
2019-05-05T19:10:12.028Z,101502.84
2019-05-05T19:12:40.855Z,101501.49
2019-05-05T19:15:09.286Z,101503.64
2019-05-05T19:17:38.019Z,101505.48
2019-05-05T19:20:14.662Z,101512.05
2019-05-05T19:22:43.557Z,101510.02
2019-05-05T19:25:17.878Z,101505.09
2019-05-05T19:27:46.386Z,101510.98
2019-05-05T19:30:14.965Z,101507.59
2019-05-05T19:32:43.827Z,101506.58
2019-05-05T19:35:12.286Z,101506.76
2019-05-05T19:37:40.965Z,101510.44
2019-05-05T19:40:09.748Z,101510.80
2019-05-05T19:42:38.213Z,101508.95
2019-05-05T19:45:06.864Z,101502.51
2019-05-05T19:47:35.343Z,101505.66
2019-05-05T19:50:18.931Z,101509.02
2019-05-05T19:52:47.405Z,101504.41
2019-05-05T19:55:15.915Z,101504.23
2019-05-05T19:57:44.629Z,101504.24
2019-05-05T20:00:14.585Z,101504.41
2019-05-05T20:02:43.869Z,101512.05
2019-05-05T20:05:13.768Z,101506.26
2019-05-05T20:07:43.919Z,101506.07
2019-05-05T20:10:14.546Z,101509.27
2019-05-05T20:12:44.831Z,101516.11
2019-05-05T20:15:18.336Z,101522.63
2019-05-05T20:17:46.828Z,101523.97
2019-05-05T20:20:16.750Z,101522.91
2019-05-05T20:22:45.462Z,101519.14
2019-05-05T20:25:14.183Z,101509.03
2019-05-05T20:27:42.935Z,101509.91
2019-05-05T20:30:11.412Z,101513.30
2019-05-05T20:32:45.814Z,101511.27
2019-05-05T20:35:20.265Z,101506.23
2019-05-05T20:37:54.171Z,101513.98
2019-05-05T20:40:25.297Z,101510.79
2019-05-05T20:42:54.261Z,101507.77
2019-05-05T20:45:25.908Z,101501.94
2019-05-05T20:47:54.382Z,101506.15
2019-05-05T20:50:24.718Z,101505.47
2019-05-05T20:52:53.662Z,101508.63
2019-05-05T20:55:22.170Z,101507.52
2019-05-05T20:57:50.614Z,101502.95
2019-05-05T21:00:19.077Z,101502.59
2019-05-05T21:02:47.548Z,101503.92
2019-05-05T21:05:16.030Z,101497.66
2019-05-05T21:07:44.510Z,101501.78
2019-05-05T21:10:14.371Z,101502.96
2019-05-05T21:12:45.425Z,101506.09
2019-05-05T21:15:13.461Z,101504.95
2019-05-05T21:17:41.950Z,101509.18
2019-05-05T21:20:10.888Z,101502.94
2019-05-05T21:22:53.910Z,101501.61
2019-05-05T21:25:24.833Z,101501.67
2019-05-05T21:27:53.373Z,101501.12
2019-05-05T21:30:23.725Z,101497.44
2019-05-05T21:32:54.468Z,101497.09
2019-05-05T21:35:24.036Z,101494.93
2019-05-05T21:37:54.305Z,101489.67
2019-05-05T21:40:25.036Z,101486.31
2019-05-05T21:42:54.291Z,101487.14
2019-05-05T21:45:22.859Z,101486.29
2019-05-05T21:47:51.313Z,101487.91
2019-05-05T21:50:24.590Z,101486.88
2019-05-05T21:53:04.580Z,101485.33
2019-05-05T21:55:41.201Z,101489.23
2019-05-05T21:58:15.425Z,101479.45
2019-05-05T22:01:04.192Z,101480.08
2019-05-05T22:03:35.186Z,101476.55
2019-05-05T22:06:03.827Z,101478.27
2019-05-05T22:08:33.679Z,101476.81
2019-05-05T22:11:03.963Z,101482.50
2019-05-05T22:13:36.206Z,101477.60
2019-05-05T22:16:04.067Z,101471.74
2019-05-05T22:18:32.746Z,101475.95
2019-05-05T22:21:06.377Z,101482.28
2019-05-05T22:23:36.815Z,101481.23
2019-05-05T22:26:05.298Z,101472.53
2019-05-05T22:28:34.245Z,101472.64
2019-05-05T22:31:04.688Z,101463.87
2019-05-05T22:33:34.000Z,101468.23
2019-05-05T22:36:06.730Z,101467.72
2019-05-05T22:38:33.966Z,101465.02
2019-05-05T22:41:02.621Z,101460.95
2019-05-05T22:43:31.104Z,101459.70
2019-05-05T22:45:59.918Z,101457.11
2019-05-05T22:48:28.373Z,101461.16
2019-05-05T22:50:56.824Z,101457.37
2019-05-05T22:53:25.273Z,101456.22
2019-05-05T22:55:54.044Z,101455.76
2019-05-05T22:58:24.051Z,101451.16
2019-05-05T23:00:54.672Z,101447.97
2019-05-05T23:03:38.022Z,101446.80
2019-05-05T23:06:09.928Z,101448.27
2019-05-05T23:08:38.615Z,101455.37
2019-05-05T23:11:07.069Z,101450.47
2019-05-05T23:13:35.573Z,101448.93
2019-05-05T23:16:19.953Z,101444.00
2019-05-05T23:18:48.424Z,101444.17
2019-05-05T23:21:29.737Z,101440.56
2019-05-05T23:24:19.843Z,101447.62
2019-05-05T23:26:49.393Z,101440.27
2019-05-05T23:29:18.096Z,101443.71
2019-05-05T23:31:46.561Z,101447.55
2019-05-05T23:34:15.022Z,101443.16
2019-05-05T23:36:44.302Z,101440.95
2019-05-05T23:39:13.564Z,101444.59
2019-05-05T23:41:42.314Z,101451.22
2019-05-05T23:44:10.777Z,101450.73
2019-05-05T23:46:39.229Z,101450.44
2019-05-05T23:49:07.691Z,101445.55
2019-05-05T23:51:36.142Z,101443.91
2019-05-05T23:54:04.622Z,101436.81
2019-05-05T23:56:34.996Z,101444.56
2019-05-05T23:59:04.231Z,101437.95
